sensor_id;sensor_type;location;lat;lon;timestamp;P1;durP1;ratioP1;P2;durP2;ratioP2
31760;SDS011;18335;51.486;7.562;2024-03-23T00:54:43;15.57;;;3.92;;
31760;SDS011;18335;51.486;7.562;2024-03-23T00:57:08;21.20;;;5.78;;
31760;SDS011;18335;51.486;7.562;2024-03-23T00:59:36;29.75;;;5.10;;
31760;SDS011;18335;51.486;7.562;2024-03-23T01:02:02;19.33;;;5.00;;
31760;SDS011;18335;51.486;7.562;2024-03-23T01:04:28;26.70;;;8.00;;
31760;SDS011;18335;51.486;7.562;2024-03-23T01:06:54;21.25;;;5.55;;
31760;SDS011;18335;51.486;7.562;2024-03-23T01:09:21;26.02;;;4.80;;
31760;SDS011;18335;51.486;7.562;2024-03-23T01:11:49;21.98;;;4.13;;
31760;SDS011;18335;51.486;7.562;2024-03-23T01:14:16;19.00;;;5.25;;
31760;SDS011;18335;51.486;7.562;2024-03-23T01:16:41;18.45;;;3.70;;
31760;SDS011;18335;51.486;7.562;2024-03-23T01:19:08;20.33;;;5.70;;
31760;SDS011;18335;51.486;7.562;2024-03-23T01:21:34;13.75;;;4.18;;
31760;SDS011;18335;51.486;7.562;2024-03-23T01:24:00;16.95;;;4.93;;
31760;SDS011;18335;51.486;7.562;2024-03-23T01:26:26;15.82;;;5.00;;
31760;SDS011;18335;51.486;7.562;2024-03-23T01:28:54;15.60;;;3.53;;
31760;SDS011;18335;51.486;7.562;2024-03-23T01:31:20;15.95;;;4.15;;
31760;SDS011;18335;51.486;7.562;2024-03-23T01:33:47;15.00;;;3.08;;
31760;SDS011;18335;51.486;7.562;2024-03-23T01:36:13;15.35;;;3.80;;
31760;SDS011;18335;51.486;7.562;2024-03-23T01:38:39;25.73;;;4.88;;
31760;SDS011;18335;51.486;7.562;2024-03-23T01:41:05;16.08;;;4.53;;
31760;SDS011;18335;51.486;7.562;2024-03-23T01:43:32;18.45;;;4.50;;
31760;SDS011;18335;51.486;7.562;2024-03-23T01:45:59;16.20;;;3.90;;
31760;SDS011;18335;51.486;7.562;2024-03-23T01:48:26;15.90;;;3.70;;
31760;SDS011;18335;51.486;7.562;2024-03-23T01:50:52;19.58;;;3.92;;
31760;SDS011;18335;51.486;7.562;2024-03-23T01:53:19;20.95;;;3.58;;
31760;SDS011;18335;51.486;7.562;2024-03-23T01:55:47;12.77;;;3.45;;
31760;SDS011;18335;51.486;7.562;2024-03-23T01:58:14;11.43;;;4.50;;
31760;SDS011;18335;51.486;7.562;2024-03-23T02:00:39;15.63;;;3.25;;
31760;SDS011;18335;51.486;7.562;2024-03-23T02:05:50;20.00;;;4.13;;
31760;SDS011;18335;51.486;7.562;2024-03-23T02:08:17;15.68;;;3.00;;
31760;SDS011;18335;51.486;7.562;2024-03-23T02:10:44;10.30;;;3.78;;
31760;SDS011;18335;51.486;7.562;2024-03-23T02:13:09;16.05;;;2.75;;
31760;SDS011;18335;51.486;7.562;2024-03-23T02:15:36;10.02;;;3.00;;
31760;SDS011;18335;51.486;7.562;2024-03-23T02:18:04;17.25;;;4.28;;
31760;SDS011;18335;51.486;7.562;2024-03-23T02:20:32;12.30;;;3.22;;
31760;SDS011;18335;51.486;7.562;2024-03-23T02:22:59;9.82;;;2.20;;
31760;SDS011;18335;51.486;7.562;2024-03-23T02:25:26;9.63;;;1.70;;
31760;SDS011;18335;51.486;7.562;2024-03-23T02:27:51;6.00;;;1.95;;
31760;SDS011;18335;51.486;7.562;2024-03-23T02:30:19;8.77;;;2.15;;
31760;SDS011;18335;51.486;7.562;2024-03-23T02:32:45;9.15;;;2.03;;
31760;SDS011;18335;51.486;7.562;2024-03-23T02:35:12;8.05;;;1.80;;
31760;SDS011;18335;51.486;7.562;2024-03-23T02:37:37;6.53;;;1.35;;
31760;SDS011;18335;51.486;7.562;2024-03-23T02:40:06;7.82;;;1.83;;
31760;SDS011;18335;51.486;7.562;2024-03-23T02:42:32;8.35;;;1.63;;
31760;SDS011;18335;51.486;7.562;2024-03-23T02:44:59;10.32;;;1.88;;
31760;SDS011;18335;51.486;7.562;2024-03-23T02:47:25;6.97;;;2.08;;
31760;SDS011;18335;51.486;7.562;2024-03-23T02:49:52;7.35;;;1.95;;
31760;SDS011;18335;51.486;7.562;2024-03-23T02:52:17;6.20;;;1.75;;
31760;SDS011;18335;51.486;7.562;2024-03-23T02:54:44;13.90;;;2.38;;
31760;SDS011;18335;51.486;7.562;2024-03-23T02:57:11;7.78;;;2.25;;
31760;SDS011;18335;51.486;7.562;2024-03-23T02:59:38;7.47;;;2.42;;
31760;SDS011;18335;51.486;7.562;2024-03-23T03:02:04;12.50;;;2.15;;
31760;SDS011;18335;51.486;7.562;2024-03-23T03:04:32;8.93;;;2.03;;
31760;SDS011;18335;51.486;7.562;2024-03-23T03:06:58;6.75;;;1.63;;
31760;SDS011;18335;51.486;7.562;2024-03-23T03:09:25;11.73;;;2.28;;
31760;SDS011;18335;51.486;7.562;2024-03-23T03:11:50;14.93;;;3.50;;
31760;SDS011;18335;51.486;7.562;2024-03-23T03:14:18;9.43;;;2.15;;
31760;SDS011;18335;51.486;7.562;2024-03-23T03:16:45;7.35;;;1.92;;
31760;SDS011;18335;51.486;7.562;2024-03-23T03:19:11;11.35;;;2.00;;
31760;SDS011;18335;51.486;7.562;2024-03-23T03:21:37;9.95;;;2.25;;
31760;SDS011;18335;51.486;7.562;2024-03-23T03:24:05;12.77;;;2.38;;
31760;SDS011;18335;51.486;7.562;2024-03-23T03:26:32;9.98;;;2.03;;
31760;SDS011;18335;51.486;7.562;2024-03-23T03:28:58;8.88;;;1.70;;
31760;SDS011;18335;51.486;7.562;2024-03-23T03:31:25;8.93;;;2.13;;
31760;SDS011;18335;51.486;7.562;2024-03-23T03:33:52;11.43;;;2.17;;
31760;SDS011;18335;51.486;7.562;2024-03-23T03:36:18;10.45;;;1.65;;
31760;SDS011;18335;51.486;7.562;2024-03-23T03:38:45;8.02;;;1.60;;
31760;SDS011;18335;51.486;7.562;2024-03-23T03:41:10;6.65;;;1.70;;
31760;SDS011;18335;51.486;7.562;2024-03-23T03:43:37;8.95;;;2.42;;
31760;SDS011;18335;51.486;7.562;2024-03-23T03:46:03;8.57;;;1.92;;
31760;SDS011;18335;51.486;7.562;2024-03-23T03:48:34;9.35;;;3.03;;
31760;SDS011;18335;51.486;7.562;2024-03-23T03:51:00;34.13;;;4.43;;
31760;SDS011;18335;51.486;7.562;2024-03-23T03:53:27;8.50;;;2.25;;
31760;SDS011;18335;51.486;7.562;2024-03-23T03:55:52;11.82;;;2.38;;
31760;SDS011;18335;51.486;7.562;2024-03-23T03:58:19;10.27;;;2.05;;
31760;SDS011;18335;51.486;7.562;2024-03-23T04:00:45;9.90;;;1.65;;
31760;SDS011;18335;51.486;7.562;2024-03-23T04:03:11;9.48;;;2.15;;
31760;SDS011;18335;51.486;7.562;2024-03-23T04:05:38;9.20;;;2.15;;
31760;SDS011;18335;51.486;7.562;2024-03-23T04:08:05;8.25;;;2.15;;
31760;SDS011;18335;51.486;7.562;2024-03-23T04:10:33;15.85;;;1.80;;
31760;SDS011;18335;51.486;7.562;2024-03-23T04:13:00;10.50;;;2.08;;
31760;SDS011;18335;51.486;7.562;2024-03-23T04:15:26;14.65;;;3.28;;
31760;SDS011;18335;51.486;7.562;2024-03-23T04:17:53;12.05;;;2.63;;
31760;SDS011;18335;51.486;7.562;2024-03-23T04:20:19;13.95;;;2.83;;
31760;SDS011;18335;51.486;7.562;2024-03-23T04:22:47;12.63;;;3.17;;
31760;SDS011;18335;51.486;7.562;2024-03-23T04:25:13;15.07;;;2.30;;
31760;SDS011;18335;51.486;7.562;2024-03-23T04:27:40;12.50;;;2.30;;
31760;SDS011;18335;51.486;7.562;2024-03-23T04:30:06;11.52;;;3.20;;
31760;SDS011;18335;51.486;7.562;2024-03-23T04:32:36;8.75;;;2.03;;
31760;SDS011;18335;51.486;7.562;2024-03-23T04:35:02;9.30;;;2.38;;
31760;SDS011;18335;51.486;7.562;2024-03-23T04:37:31;13.40;;;2.75;;
31760;SDS011;18335;51.486;7.562;2024-03-23T04:39:59;7.95;;;1.92;;
31760;SDS011;18335;51.486;7.562;2024-03-23T04:42:26;15.20;;;3.45;;
31760;SDS011;18335;51.486;7.562;2024-03-23T04:44:53;12.90;;;2.30;;
31760;SDS011;18335;51.486;7.562;2024-03-23T04:47:20;12.32;;;3.00;;
31760;SDS011;18335;51.486;7.562;2024-03-23T04:49:46;12.05;;;1.75;;
31760;SDS011;18335;51.486;7.562;2024-03-23T04:52:15;13.43;;;2.50;;
31760;SDS011;18335;51.486;7.562;2024-03-23T04:54:42;13.60;;;2.05;;
31760;SDS011;18335;51.486;7.562;2024-03-23T04:57:09;12.95;;;2.50;;
31760;SDS011;18335;51.486;7.562;2024-03-23T04:59:36;8.75;;;2.40;;
31760;SDS011;18335;51.486;7.562;2024-03-23T05:02:02;14.98;;;3.42;;
31760;SDS011;18335;51.486;7.562;2024-03-23T05:04:29;21.20;;;4.28;;
31760;SDS011;18335;51.486;7.562;2024-03-23T05:06:55;10.80;;;2.65;;
31760;SDS011;18335;51.486;7.562;2024-03-23T05:09:21;14.25;;;2.88;;
31760;SDS011;18335;51.486;7.562;2024-03-23T05:11:47;14.45;;;3.28;;
31760;SDS011;18335;51.486;7.562;2024-03-23T05:14:15;13.48;;;3.58;;
31760;SDS011;18335;51.486;7.562;2024-03-23T05:16:41;12.90;;;2.80;;
31760;SDS011;18335;51.486;7.562;2024-03-23T05:19:08;15.48;;;2.80;;
31760;SDS011;18335;51.486;7.562;2024-03-23T05:21:34;11.88;;;2.50;;
31760;SDS011;18335;51.486;7.562;2024-03-23T05:24:00;17.92;;;2.60;;
31760;SDS011;18335;51.486;7.562;2024-03-23T05:26:26;11.77;;;2.78;;
31760;SDS011;18335;51.486;7.562;2024-03-23T05:28:54;9.52;;;2.25;;
31760;SDS011;18335;51.486;7.562;2024-03-23T05:31:24;11.25;;;3.13;;
31760;SDS011;18335;51.486;7.562;2024-03-23T05:33:51;12.43;;;2.17;;
31760;SDS011;18335;51.486;7.562;2024-03-23T05:36:17;8.55;;;2.40;;
31760;SDS011;18335;51.486;7.562;2024-03-23T05:38:44;10.85;;;2.63;;
31760;SDS011;18335;51.486;7.562;2024-03-23T05:41:09;11.43;;;2.70;;
31760;SDS011;18335;51.486;7.562;2024-03-23T05:43:36;14.52;;;3.17;;
31760;SDS011;18335;51.486;7.562;2024-03-23T05:46:02;14.68;;;3.55;;
31760;SDS011;18335;51.486;7.562;2024-03-23T05:48:31;13.77;;;3.58;;
31760;SDS011;18335;51.486;7.562;2024-03-23T05:50:57;14.02;;;3.95;;
31760;SDS011;18335;51.486;7.562;2024-03-23T05:53:24;16.08;;;2.80;;
31760;SDS011;18335;51.486;7.562;2024-03-23T05:55:50;11.15;;;3.97;;
31760;SDS011;18335;51.486;7.562;2024-03-23T05:58:19;11.10;;;3.75;;
31760;SDS011;18335;51.486;7.562;2024-03-23T06:00:45;15.88;;;3.75;;
31760;SDS011;18335;51.486;7.562;2024-03-23T06:03:12;19.00;;;4.45;;
31760;SDS011;18335;51.486;7.562;2024-03-23T06:05:39;13.90;;;4.43;;
31760;SDS011;18335;51.486;7.562;2024-03-23T06:08:07;17.85;;;4.88;;
31760;SDS011;18335;51.486;7.562;2024-03-23T06:10:34;14.07;;;3.83;;
31760;SDS011;18335;51.486;7.562;2024-03-23T06:13:02;17.77;;;4.57;;
31760;SDS011;18335;51.486;7.562;2024-03-23T06:15:28;18.45;;;4.78;;
31760;SDS011;18335;51.486;7.562;2024-03-23T06:17:57;18.98;;;6.40;;
31760;SDS011;18335;51.486;7.562;2024-03-23T06:20:23;20.83;;;7.38;;
31760;SDS011;18335;51.486;7.562;2024-03-23T06:22:52;23.38;;;6.05;;
31760;SDS011;18335;51.486;7.562;2024-03-23T06:25:17;15.38;;;5.20;;
31760;SDS011;18335;51.486;7.562;2024-03-23T06:27:44;20.95;;;7.35;;
31760;SDS011;18335;51.486;7.562;2024-03-23T06:30:10;23.38;;;7.90;;
31760;SDS011;18335;51.486;7.562;2024-03-23T06:32:38;25.20;;;8.27;;
31760;SDS011;18335;51.486;7.562;2024-03-23T06:35:04;24.80;;;8.75;;
31760;SDS011;18335;51.486;7.562;2024-03-23T06:37:33;19.27;;;8.32;;
31760;SDS011;18335;51.486;7.562;2024-03-23T06:40:00;22.83;;;8.80;;
31760;SDS011;18335;51.486;7.562;2024-03-23T06:42:28;21.95;;;10.00;;
31760;SDS011;18335;51.486;7.562;2024-03-23T06:44:54;24.20;;;10.48;;
31760;SDS011;18335;51.486;7.562;2024-03-23T06:47:20;29.58;;;12.52;;
31760;SDS011;18335;51.486;7.562;2024-03-23T06:49:46;24.58;;;11.93;;
31760;SDS011;18335;51.486;7.562;2024-03-23T06:52:13;23.08;;;11.23;;
31760;SDS011;18335;51.486;7.562;2024-03-23T06:54:39;27.25;;;11.10;;
31760;SDS011;18335;51.486;7.562;2024-03-23T06:57:07;24.60;;;12.52;;
31760;SDS011;18335;51.486;7.562;2024-03-23T06:59:32;23.50;;;11.43;;
31760;SDS011;18335;51.486;7.562;2024-03-23T07:01:59;32.25;;;13.60;;
31760;SDS011;18335;51.486;7.562;2024-03-23T07:04:25;27.02;;;12.52;;
31760;SDS011;18335;51.486;7.562;2024-03-23T07:06:52;30.55;;;14.35;;
31760;SDS011;18335;51.486;7.562;2024-03-23T07:09:17;30.45;;;14.05;;
31760;SDS011;18335;51.486;7.562;2024-03-23T07:11:45;29.63;;;15.07;;
31760;SDS011;18335;51.486;7.562;2024-03-23T07:14:12;31.23;;;14.07;;
31760;SDS011;18335;51.486;7.562;2024-03-23T07:16:39;34.10;;;15.32;;
31760;SDS011;18335;51.486;7.562;2024-03-23T07:19:05;28.63;;;15.23;;
31760;SDS011;18335;51.486;7.562;2024-03-23T07:21:31;29.45;;;15.68;;
31760;SDS011;18335;51.486;7.562;2024-03-23T07:23:57;31.48;;;16.60;;
31760;SDS011;18335;51.486;7.562;2024-03-23T07:26:24;28.00;;;15.95;;
31760;SDS011;18335;51.486;7.562;2024-03-23T07:28:49;32.15;;;15.27;;
31760;SDS011;18335;51.486;7.562;2024-03-23T07:31:19;28.55;;;15.45;;
31760;SDS011;18335;51.486;7.562;2024-03-23T07:33:45;29.73;;;16.40;;
31760;SDS011;18335;51.486;7.562;2024-03-23T07:36:13;35.38;;;15.38;;
31760;SDS011;18335;51.486;7.562;2024-03-23T07:38:40;39.92;;;17.60;;
31760;SDS011;18335;51.486;7.562;2024-03-23T07:41:07;31.02;;;16.77;;
31760;SDS011;18335;51.486;7.562;2024-03-23T07:43:34;40.45;;;19.15;;
31760;SDS011;18335;51.486;7.562;2024-03-23T07:46:01;36.90;;;15.88;;
31760;SDS011;18335;51.486;7.562;2024-03-23T07:48:30;32.75;;;16.15;;
31760;SDS011;18335;51.486;7.562;2024-03-23T07:50:58;27.77;;;15.60;;
31760;SDS011;18335;51.486;7.562;2024-03-23T07:53:24;31.02;;;17.08;;
31760;SDS011;18335;51.486;7.562;2024-03-23T07:55:54;31.92;;;16.20;;
31760;SDS011;18335;51.486;7.562;2024-03-23T07:58:21;32.47;;;16.20;;
31760;SDS011;18335;51.486;7.562;2024-03-23T08:00:48;28.80;;;15.00;;
31760;SDS011;18335;51.486;7.562;2024-03-23T08:03:14;31.75;;;15.75;;
31760;SDS011;18335;51.486;7.562;2024-03-23T08:05:42;29.27;;;15.65;;
31760;SDS011;18335;51.486;7.562;2024-03-23T08:08:08;25.52;;;14.90;;
31760;SDS011;18335;51.486;7.562;2024-03-23T08:10:36;32.97;;;15.70;;
31760;SDS011;18335;51.486;7.562;2024-03-23T08:13:02;32.95;;;14.80;;
31760;SDS011;18335;51.486;7.562;2024-03-23T08:15:29;26.83;;;14.20;;
31760;SDS011;18335;51.486;7.562;2024-03-23T08:17:55;30.83;;;15.20;;
31760;SDS011;18335;51.486;7.562;2024-03-23T08:20:22;28.70;;;15.68;;
31760;SDS011;18335;51.486;7.562;2024-03-23T08:22:49;28.75;;;14.23;;
31760;SDS011;18335;51.486;7.562;2024-03-23T08:25:16;36.42;;;15.30;;
31760;SDS011;18335;51.486;7.562;2024-03-23T08:27:43;31.50;;;13.68;;
31760;SDS011;18335;51.486;7.562;2024-03-23T08:30:10;29.42;;;15.10;;
31760;SDS011;18335;51.486;7.562;2024-03-23T08:32:36;30.35;;;14.30;;
31760;SDS011;18335;51.486;7.562;2024-03-23T08:35:03;26.35;;;13.13;;
31760;SDS011;18335;51.486;7.562;2024-03-23T08:37:30;29.25;;;12.52;;
31760;SDS011;18335;51.486;7.562;2024-03-23T08:39:58;22.58;;;13.02;;
31760;SDS011;18335;51.486;7.562;2024-03-23T08:42:24;24.60;;;11.50;;
31760;SDS011;18335;51.486;7.562;2024-03-23T08:44:51;25.02;;;9.88;;
31760;SDS011;18335;51.486;7.562;2024-03-23T08:47:16;23.73;;;10.20;;
31760;SDS011;18335;51.486;7.562;2024-03-23T08:49:44;21.40;;;8.88;;
31760;SDS011;18335;51.486;7.562;2024-03-23T08:52:10;22.05;;;8.25;;
31760;SDS011;18335;51.486;7.562;2024-03-23T08:54:37;21.85;;;8.35;;
31760;SDS011;18335;51.486;7.562;2024-03-23T08:57:04;21.08;;;8.80;;
31760;SDS011;18335;51.486;7.562;2024-03-23T08:59:32;20.65;;;8.15;;
31760;SDS011;18335;51.486;7.562;2024-03-23T09:01:58;18.75;;;8.40;;
31760;SDS011;18335;51.486;7.562;2024-03-23T09:04:24;21.45;;;8.05;;
31760;SDS011;18335;51.486;7.562;2024-03-23T09:06:50;22.40;;;7.85;;
31760;SDS011;18335;51.486;7.562;2024-03-23T09:09:17;24.75;;;8.40;;
31760;SDS011;18335;51.486;7.562;2024-03-23T09:11:43;20.00;;;7.32;;
31760;SDS011;18335;51.486;7.562;2024-03-23T09:14:11;24.88;;;9.40;;
31760;SDS011;18335;51.486;7.562;2024-03-23T09:16:37;18.75;;;7.50;;
31760;SDS011;18335;51.486;7.562;2024-03-23T09:19:04;26.35;;;7.38;;
31760;SDS011;18335;51.486;7.562;2024-03-23T09:21:29;16.85;;;6.60;;
31760;SDS011;18335;51.486;7.562;2024-03-23T09:23:56;14.88;;;7.15;;
31760;SDS011;18335;51.486;7.562;2024-03-23T09:26:22;15.65;;;5.93;;
31760;SDS011;18335;51.486;7.562;2024-03-23T09:28:48;16.58;;;5.88;;
31760;SDS011;18335;51.486;7.562;2024-03-23T09:31:16;27.92;;;8.77;;
31760;SDS011;18335;51.486;7.562;2024-03-23T09:33:43;18.67;;;5.63;;
31760;SDS011;18335;51.486;7.562;2024-03-23T09:36:09;15.43;;;4.72;;
31760;SDS011;18335;51.486;7.562;2024-03-23T09:38:36;11.40;;;4.35;;
31760;SDS011;18335;51.486;7.562;2024-03-23T09:41:06;14.27;;;4.18;;
31760;SDS011;18335;51.486;7.562;2024-03-23T09:43:34;15.65;;;4.03;;
31760;SDS011;18335;51.486;7.562;2024-03-23T09:46:01;16.40;;;4.93;;
31760;SDS011;18335;51.486;7.562;2024-03-23T09:48:29;8.88;;;3.20;;
31760;SDS011;18335;51.486;7.562;2024-03-23T09:50:56;15.73;;;3.33;;
31760;SDS011;18335;51.486;7.562;2024-03-23T09:53:23;11.70;;;2.38;;
31760;SDS011;18335;51.486;7.562;2024-03-23T09:55:49;9.35;;;2.67;;
31760;SDS011;18335;51.486;7.562;2024-03-23T09:58:16;13.82;;;2.65;;
31760;SDS011;18335;51.486;7.562;2024-03-23T10:00:43;13.38;;;2.85;;
31760;SDS011;18335;51.486;7.562;2024-03-23T10:03:10;12.43;;;3.22;;
31760;SDS011;18335;51.486;7.562;2024-03-23T10:05:37;9.95;;;3.65;;
31760;SDS011;18335;51.486;7.562;2024-03-23T10:08:17;11.18;;;2.70;;
31760;SDS011;18335;51.486;7.562;2024-03-23T10:10:44;6.85;;;2.47;;
31760;SDS011;18335;51.486;7.562;2024-03-23T10:13:12;10.55;;;2.83;;
31760;SDS011;18335;51.486;7.562;2024-03-23T10:15:54;13.32;;;3.42;;
31760;SDS011;18335;51.486;7.562;2024-03-23T10:18:22;11.05;;;3.55;;
31760;SDS011;18335;51.486;7.562;2024-03-23T10:20:52;15.95;;;3.70;;
31760;SDS011;18335;51.486;7.562;2024-03-23T10:23:33;19.73;;;6.10;;
31760;SDS011;18335;51.486;7.562;2024-03-23T10:26:06;12.30;;;5.28;;
31760;SDS011;18335;51.486;7.562;2024-03-23T10:28:45;14.32;;;4.65;;
31760;SDS011;18335;51.486;7.562;2024-03-23T10:31:17;15.40;;;4.70;;
31760;SDS011;18335;51.486;7.562;2024-03-23T10:33:44;13.57;;;5.18;;
31760;SDS011;18335;51.486;7.562;2024-03-23T10:36:12;13.27;;;4.55;;
31760;SDS011;18335;51.486;7.562;2024-03-23T10:38:40;12.38;;;5.07;;
31760;SDS011;18335;51.486;7.562;2024-03-23T10:41:07;13.38;;;4.35;;
31760;SDS011;18335;51.486;7.562;2024-03-23T10:43:35;12.48;;;3.63;;
31760;SDS011;18335;51.486;7.562;2024-03-23T10:46:02;10.88;;;3.72;;
31760;SDS011;18335;51.486;7.562;2024-03-23T10:48:29;17.77;;;3.40;;
31760;SDS011;18335;51.486;7.562;2024-03-23T10:50:55;13.05;;;3.85;;
31760;SDS011;18335;51.486;7.562;2024-03-23T10:53:24;8.30;;;2.50;;
31760;SDS011;18335;51.486;7.562;2024-03-23T10:55:51;7.13;;;2.40;;
31760;SDS011;18335;51.486;7.562;2024-03-23T10:58:18;9.18;;;3.28;;
31760;SDS011;18335;51.486;7.562;2024-03-23T11:00:49;10.00;;;3.03;;
31760;SDS011;18335;51.486;7.562;2024-03-23T11:03:29;9.55;;;2.03;;
31760;SDS011;18335;51.486;7.562;2024-03-23T11:05:55;7.20;;;2.40;;
31760;SDS011;18335;51.486;7.562;2024-03-23T11:08:31;12.82;;;2.72;;
31760;SDS011;18335;51.486;7.562;2024-03-23T11:11:14;8.55;;;2.17;;
31760;SDS011;18335;51.486;7.562;2024-03-23T11:13:43;13.07;;;2.35;;
31760;SDS011;18335;51.486;7.562;2024-03-23T11:16:13;11.00;;;1.73;;
31760;SDS011;18335;51.486;7.562;2024-03-23T11:18:43;10.73;;;2.10;;
31760;SDS011;18335;51.486;7.562;2024-03-23T11:21:10;18.90;;;2.25;;
31760;SDS011;18335;51.486;7.562;2024-03-23T11:23:38;10.13;;;2.50;;
31760;SDS011;18335;51.486;7.562;2024-03-23T11:26:07;8.32;;;1.25;;
31760;SDS011;18335;51.486;7.562;2024-03-23T11:28:34;3.90;;;1.13;;
31760;SDS011;18335;51.486;7.562;2024-03-23T11:31:00;3.85;;;0.55;;
31760;SDS011;18335;51.486;7.562;2024-03-23T11:33:27;3.60;;;0.43;;
31760;SDS011;18335;51.486;7.562;2024-03-23T11:35:54;1.90;;;0.30;;
31760;SDS011;18335;51.486;7.562;2024-03-23T11:38:21;3.53;;;0.60;;
31760;SDS011;18335;51.486;7.562;2024-03-23T11:40:48;2.05;;;0.50;;
31760;SDS011;18335;51.486;7.562;2024-03-23T11:43:16;7.80;;;2.67;;
31760;SDS011;18335;51.486;7.562;2024-03-23T11:45:43;3.38;;;0.60;;
31760;SDS011;18335;51.486;7.562;2024-03-23T11:48:11;6.28;;;0.82;;
31760;SDS011;18335;51.486;7.562;2024-03-23T11:50:39;4.85;;;0.98;;
31760;SDS011;18335;51.486;7.562;2024-03-23T11:53:07;2.00;;;0.63;;
31760;SDS011;18335;51.486;7.562;2024-03-23T11:55:41;1.05;;;0.50;;
31760;SDS011;18335;51.486;7.562;2024-03-23T11:58:10;2.92;;;0.50;;
31760;SDS011;18335;51.486;7.562;2024-03-23T12:00:36;3.25;;;0.70;;
31760;SDS011;18335;51.486;7.562;2024-03-23T12:03:02;3.35;;;0.77;;
31760;SDS011;18335;51.486;7.562;2024-03-23T12:05:29;8.43;;;1.40;;
31760;SDS011;18335;51.486;7.562;2024-03-23T12:10:44;4.30;;;1.27;;
31760;SDS011;18335;51.486;7.562;2024-03-23T12:13:12;4.07;;;0.90;;
31760;SDS011;18335;51.486;7.562;2024-03-23T12:15:40;4.25;;;1.00;;
31760;SDS011;18335;51.486;7.562;2024-03-23T12:18:07;5.85;;;1.30;;
31760;SDS011;18335;51.486;7.562;2024-03-23T12:20:33;5.35;;;1.30;;
31760;SDS011;18335;51.486;7.562;2024-03-23T12:23:06;10.88;;;1.33;;
31760;SDS011;18335;51.486;7.562;2024-03-23T12:25:32;9.32;;;1.50;;
31760;SDS011;18335;51.486;7.562;2024-03-23T12:27:59;6.45;;;1.65;;
31760;SDS011;18335;51.486;7.562;2024-03-23T12:30:26;5.30;;;1.60;;
31760;SDS011;18335;51.486;7.562;2024-03-23T12:32:53;5.28;;;1.42;;
31760;SDS011;18335;51.486;7.562;2024-03-23T12:35:19;8.73;;;1.70;;
31760;SDS011;18335;51.486;7.562;2024-03-23T12:37:45;7.82;;;2.03;;
31760;SDS011;18335;51.486;7.562;2024-03-23T12:40:11;7.25;;;1.90;;
31760;SDS011;18335;51.486;7.562;2024-03-23T12:42:38;9.25;;;3.75;;
31760;SDS011;18335;51.486;7.562;2024-03-23T12:45:04;11.07;;;2.25;;
31760;SDS011;18335;51.486;7.562;2024-03-23T12:47:33;8.68;;;2.60;;
31760;SDS011;18335;51.486;7.562;2024-03-23T12:49:58;6.25;;;1.70;;
31760;SDS011;18335;51.486;7.562;2024-03-23T12:52:25;6.05;;;2.17;;
31760;SDS011;18335;51.486;7.562;2024-03-23T12:54:54;4.90;;;1.48;;
31760;SDS011;18335;51.486;7.562;2024-03-23T12:57:22;4.03;;;1.73;;
31760;SDS011;18335;51.486;7.562;2024-03-23T12:59:49;6.82;;;1.45;;
31760;SDS011;18335;51.486;7.562;2024-03-23T13:02:18;7.47;;;1.42;;
31760;SDS011;18335;51.486;7.562;2024-03-23T13:04:46;4.72;;;1.33;;
31760;SDS011;18335;51.486;7.562;2024-03-23T13:07:16;7.63;;;1.10;;
31760;SDS011;18335;51.486;7.562;2024-03-23T13:09:42;5.78;;;1.35;;
31760;SDS011;18335;51.486;7.562;2024-03-23T13:12:08;5.90;;;1.52;;
31760;SDS011;18335;51.486;7.562;2024-03-23T13:14:34;7.60;;;1.40;;
31760;SDS011;18335;51.486;7.562;2024-03-23T13:17:01;7.75;;;2.58;;
31760;SDS011;18335;51.486;7.562;2024-03-23T13:19:27;7.88;;;1.95;;
31760;SDS011;18335;51.486;7.562;2024-03-23T13:21:57;6.85;;;1.13;;
31760;SDS011;18335;51.486;7.562;2024-03-23T13:24:23;7.18;;;1.45;;
31760;SDS011;18335;51.486;7.562;2024-03-23T13:26:51;8.90;;;2.97;;
31760;SDS011;18335;51.486;7.562;2024-03-23T13:29:17;8.48;;;1.52;;
31760;SDS011;18335;51.486;7.562;2024-03-23T13:31:44;9.95;;;1.73;;
31760;SDS011;18335;51.486;7.562;2024-03-23T13:34:11;4.50;;;1.55;;
31760;SDS011;18335;51.486;7.562;2024-03-23T13:36:38;12.10;;;1.95;;
31760;SDS011;18335;51.486;7.562;2024-03-23T13:39:05;10.35;;;1.92;;
31760;SDS011;18335;51.486;7.562;2024-03-23T13:41:37;6.88;;;2.08;;
31760;SDS011;18335;51.486;7.562;2024-03-23T13:44:04;9.68;;;2.88;;
31760;SDS011;18335;51.486;7.562;2024-03-23T13:46:30;10.88;;;2.67;;
31760;SDS011;18335;51.486;7.562;2024-03-23T13:48:57;3.95;;;1.40;;
31760;SDS011;18335;51.486;7.562;2024-03-23T13:51:23;8.02;;;1.17;;
31760;SDS011;18335;51.486;7.562;2024-03-23T13:53:52;8.07;;;1.52;;
31760;SDS011;18335;51.486;7.562;2024-03-23T13:56:19;4.25;;;1.40;;
31760;SDS011;18335;51.486;7.562;2024-03-23T13:58:46;4.65;;;1.20;;
31760;SDS011;18335;51.486;7.562;2024-03-23T14:01:13;8.02;;;1.50;;
31760;SDS011;18335;51.486;7.562;2024-03-23T14:03:40;4.80;;;1.48;;
31760;SDS011;18335;51.486;7.562;2024-03-23T14:06:06;5.15;;;1.33;;
31760;SDS011;18335;51.486;7.562;2024-03-23T14:08:34;6.20;;;1.98;;
31760;SDS011;18335;51.486;7.562;2024-03-23T14:11:01;8.85;;;1.10;;
31760;SDS011;18335;51.486;7.562;2024-03-23T14:13:31;7.40;;;1.77;;
31760;SDS011;18335;51.486;7.562;2024-03-23T14:15:57;6.20;;;1.58;;
31760;SDS011;18335;51.486;7.562;2024-03-23T14:18:24;7.28;;;2.38;;
31760;SDS011;18335;51.486;7.562;2024-03-23T14:20:51;5.55;;;1.17;;
31760;SDS011;18335;51.486;7.562;2024-03-23T14:23:18;4.20;;;1.30;;
31760;SDS011;18335;51.486;7.562;2024-03-23T14:25:44;6.78;;;1.98;;
31760;SDS011;18335;51.486;7.562;2024-03-23T14:28:11;8.75;;;1.90;;
31760;SDS011;18335;51.486;7.562;2024-03-23T14:30:41;3.15;;;1.55;;
31760;SDS011;18335;51.486;7.562;2024-03-23T14:33:08;9.27;;;1.98;;
31760;SDS011;18335;51.486;7.562;2024-03-23T14:35:34;12.88;;;2.85;;
31760;SDS011;18335;51.486;7.562;2024-03-23T14:38:01;6.40;;;1.75;;
31760;SDS011;18335;51.486;7.562;2024-03-23T14:40:27;5.95;;;1.73;;
31760;SDS011;18335;51.486;7.562;2024-03-23T14:42:54;4.53;;;1.27;;
31760;SDS011;18335;51.486;7.562;2024-03-23T14:45:20;7.80;;;1.45;;
31760;SDS011;18335;51.486;7.562;2024-03-23T14:47:50;4.93;;;1.20;;
31760;SDS011;18335;51.486;7.562;2024-03-23T14:50:16;7.80;;;1.75;;
31760;SDS011;18335;51.486;7.562;2024-03-23T14:52:43;9.85;;;1.45;;
31760;SDS011;18335;51.486;7.562;2024-03-23T14:55:10;5.07;;;1.05;;
31760;SDS011;18335;51.486;7.562;2024-03-23T14:57:37;4.53;;;1.20;;
31760;SDS011;18335;51.486;7.562;2024-03-23T15:00:05;4.97;;;1.10;;
31760;SDS011;18335;51.486;7.562;2024-03-23T15:02:35;7.95;;;1.48;;
31760;SDS011;18335;51.486;7.562;2024-03-23T15:05:02;9.32;;;1.38;;
31760;SDS011;18335;51.486;7.562;2024-03-23T15:07:30;3.22;;;1.13;;
31760;SDS011;18335;51.486;7.562;2024-03-23T15:09:55;8.50;;;1.23;;
31760;SDS011;18335;51.486;7.562;2024-03-23T15:12:22;4.05;;;1.17;;
31760;SDS011;18335;51.486;7.562;2024-03-23T15:14:48;5.65;;;1.10;;
31760;SDS011;18335;51.486;7.562;2024-03-23T15:17:15;4.55;;;1.35;;
31760;SDS011;18335;51.486;7.562;2024-03-23T15:19:40;6.32;;;1.30;;
31760;SDS011;18335;51.486;7.562;2024-03-23T15:22:09;5.47;;;1.27;;
31760;SDS011;18335;51.486;7.562;2024-03-23T15:24:35;3.78;;;0.93;;
31760;SDS011;18335;51.486;7.562;2024-03-23T15:27:02;10.02;;;1.98;;
31760;SDS011;18335;51.486;7.562;2024-03-23T15:29:28;6.63;;;1.05;;
31760;SDS011;18335;51.486;7.562;2024-03-23T15:31:55;7.47;;;1.23;;
31760;SDS011;18335;51.486;7.562;2024-03-23T15:34:21;3.88;;;1.15;;
31760;SDS011;18335;51.486;7.562;2024-03-23T15:36:48;4.68;;;1.40;;